Time;durP1;ratioP1;P1;durP2;ratioP2;P2;SDS_P1;SDS_P2;PMS_P1;PMS_P2;Temp;Humidity;BMP_temperature;BMP_pressure;BME280_temperature;BME280_humidity;BME280_pressure;Samples;Min_cycle;Max_cycle;Signal;HPM_P1;HPM_P2
2022/09/22 00:00:42;;;;;;;5.83;4.73;;;;;;;8.62;100.00;94669.50;5029186;28;20279;-63
2022/09/22 00:03:08;;;;;;;4.93;4.47;;;;;;;8.61;100.00;94663.63;5029234;28;20197;-62
2022/09/22 00:05:33;;;;;;;5.90;5.20;;;;;;;8.57;100.00;94667.31;5030534;28;20221;-63
2022/09/22 00:08:00;;;;;;;6.20;5.00;;;;;;;8.56;100.00;94665.72;5031861;28;20186;-64
2022/09/22 00:10:27;;;;;;;5.33;4.50;;;;;;;8.48;100.00;94666.28;5032736;28;20236;-64
2022/09/22 00:12:53;;;;;;;6.43;4.83;;;;;;;8.53;100.00;94665.13;5032547;28;20228;-64
2022/09/22 00:15:19;;;;;;;5.10;4.47;;;;;;;8.48;100.00;94666.28;5033938;28;20214;-63
2022/09/22 00:17:45;;;;;;;4.60;4.20;;;;;;;8.44;100.00;94659.84;5032183;28;20264;-63
2022/09/22 00:20:12;;;;;;;4.87;4.33;;;;;;;8.48;100.00;94666.28;5033109;28;20210;-60
2022/09/22 00:22:39;;;;;;;5.43;4.47;;;;;;;8.52;100.00;94663.53;5033738;28;20365;-62
2022/09/22 00:25:06;;;;;;;5.57;4.17;;;;;;;8.60;100.00;94673.91;5033551;28;20190;-62
2022/09/22 00:27:31;;;;;;;4.50;4.10;;;;;;;8.75;100.00;94678.56;5033459;28;20198;-62
2022/09/22 00:29:57;;;;;;;4.53;4.13;;;;;;;8.59;100.00;94682.41;5033676;28;20209;-63
2022/09/22 00:32:22;;;;;;;4.57;3.97;;;;;;;8.59;100.00;94678.16;5033910;28;20723;-59
2022/09/22 00:34:48;;;;;;;4.70;4.27;;;;;;;8.59;100.00;94672.28;5033527;28;20224;-62
2022/09/22 00:37:14;;;;;;;4.03;3.37;;;;;;;8.48;100.00;94663.75;5034149;28;20218;-64
2022/09/22 00:39:40;;;;;;;4.70;4.00;;;;;;;8.48;100.00;94664.69;5033544;28;20236;-62
2022/09/22 00:42:05;;;;;;;5.77;4.00;;;;;;;8.41;100.00;94664.34;5033775;28;20200;-61
2022/09/22 00:44:38;;;;;;;4.53;3.80;;;;;;;8.51;100.00;94672.03;5033462;28;20260;-62
2022/09/22 00:47:41;;;;;;;4.73;4.13;;;;;;;8.53;100.00;94672.75;5032067;28;20198;-64
2022/09/22 00:50:16;;;;;;;4.80;4.33;;;;;;;8.55;100.00;94675.97;5033345;28;20202;-61
2022/09/22 00:52:53;;;;;;;5.10;4.60;;;;;;;8.55;100.00;94678.50;5033411;28;20218;-61
2022/09/22 00:55:42;;;;;;;5.80;5.23;;;;;;;8.55;100.00;94673.44;5033432;28;20209;-63
2022/09/22 00:58:12;;;;;;;5.97;5.10;;;;;;;8.53;100.00;94675.28;5031916;28;20227;-64
2022/09/22 01:00:38;;;;;;;4.80;4.40;;;;;;;8.51;100.00;94666.97;5033380;28;20225;-64
2022/09/22 01:03:06;;;;;;;4.20;3.80;;;;;;;8.50;100.00;94662.84;5031930;28;20198;-61
2022/09/22 01:05:32;;;;;;;4.57;3.80;;;;;;;8.44;100.00;94656.53;5033021;28;20210;-64
2022/09/22 01:08:00;;;;;;;5.00;3.97;;;;;;;8.44;100.00;94659.84;5032942;28;20197;-60
2022/09/22 01:10:26;;;;;;;5.07;4.17;;;;;;;8.52;100.00;94659.28;5033136;28;20214;-64
2022/09/22 01:13:12;;;;;;;4.13;3.73;;;;;;;8.56;100.00;94669.97;5031724;28;20214;-62
2022/09/22 01:15:52;;;;;;;4.33;3.63;;;;;;;8.61;100.00;94665.34;5033040;28;20241;-61
2022/09/22 01:18:20;;;;;;;4.67;4.23;;;;;;;8.60;100.00;94668.81;5033037;28;20205;-63
2022/09/22 01:21:10;;;;;;;4.13;3.10;;;;;;;8.62;100.00;94670.31;5033114;28;20186;-63
2022/09/22 01:24:07;;;;;;;4.50;3.77;;;;;;;8.54;100.00;94672.66;5033162;28;20182;-63
2022/09/22 01:26:44;;;;;;;4.73;3.77;;;;;;;8.59;100.00;94668.00;5032886;28;20195;-64
2022/09/22 01:29:24;;;;;;;3.67;3.37;;;;;;;8.66;100.00;94664.09;5031244;28;20213;-63
2022/09/22 01:32:00;;;;;;;3.97;3.67;;;;;;;8.66;100.00;94668.34;5032739;28;20217;-60
2022/09/22 01:34:50;;;;;;;5.00;3.70;;;;;;;8.66;100.00;94665.81;5032847;28;20745;-61
2022/09/22 01:37:45;;;;;;;3.97;3.47;;;;;;;8.60;100.00;94659.50;5033194;28;20285;-65
2022/09/22 01:40:22;;;;;;;5.93;3.70;;;;;;;8.59;100.00;94660.41;5032667;28;20198;-62
2022/09/22 01:42:59;;;;;;;4.40;4.00;;;;;;;8.58;100.00;94655.47;5032833;28;20196;-64
2022/09/22 01:45:31;;;;;;;4.47;4.03;;;;;;;8.52;100.00;94646.63;5032560;28;20213;-61
2022/09/22 01:48:12;;;;;;;6.07;4.20;;;;;;;8.58;100.00;94650.41;5032637;28;20182;-60
2022/09/22 01:50:53;;;;;;;5.87;4.37;;;;;;;8.45;100.00;94643.75;5032370;28;20217;-64
2022/09/22 01:53:23;;;;;;;5.50;4.90;;;;;;;8.41;100.00;94632.25;5032471;28;20197;-62
2022/09/22 01:55:57;;;;;;;5.20;4.60;;;;;;;8.34;100.00;94633.63;5031202;28;20229;-63
2022/09/22 01:58:33;;;;;;;5.23;4.73;;;;;;;8.36;100.00;94638.59;5031088;28;20194;-64
2022/09/22 02:01:09;;;;;;;6.03;4.83;;;;;;;8.32;100.00;94643.06;5031237;28;20210;-63
2022/09/22 02:03:45;;;;;;;5.37;4.40;;;;;;;8.27;100.00;94644.34;5032435;28;20189;-64
2022/09/22 02:06:10;;;;;;;5.97;4.43;;;;;;;8.22;100.00;94641.34;5031152;28;20284;-64
2022/09/22 02:08:47;;;;;;;6.90;4.70;;;;;;;8.19;100.00;94637.28;5032111;28;20227;-61
2022/09/22 02:11:15;;;;;;;5.33;4.50;;;;;;;8.27;100.00;94650.22;5032244;28;20308;-61
2022/09/22 02:13:43;;;;;;;7.50;5.13;;;;;;;8.18;100.00;94643.25;5032007;28;20218;-63
2022/09/22 02:16:10;;;;;;;7.77;5.10;;;;;;;8.24;100.00;94637.75;5032125;28;20198;-64
2022/09/22 02:18:44;;;;;;;6.43;5.47;;;;;;;8.17;100.00;94641.66;5030936;28;21877;-63
2022/09/22 02:21:11;;;;;;;6.63;5.20;;;;;;;8.22;100.00;94642.13;5030770;28;20208;-62
2022/09/22 02:23:37;;;;;;;6.57;5.00;;;;;;;8.28;100.00;94638.38;5030525;28;20263;-62
2022/09/22 02:26:05;;;;;;;6.23;5.47;;;;;;;8.23;100.00;94646.28;5032238;28;20587;-61
2022/09/22 02:28:34;;;;;;;5.97;5.37;;;;;;;8.21;100.00;94642.25;5031680;28;20190;-64
2022/09/22 02:31:03;;;;;;;5.17;4.67;;;;;;;8.39;100.00;94636.63;5031312;28;20198;-62
2022/09/22 02:33:32;;;;;;;6.07;5.30;;;;;;;8.67;100.00;94654.75;5031968;28;20674;-62
2022/09/22 02:36:33;;;;;;;7.37;5.07;;;;;;;8.56;100.00;94652.25;5032041;28;20209;-60
2022/09/22 02:39:20;;;;;;;5.83;5.10;;;;;;;8.53;100.00;94643.16;5011526;28;20286;-64
2022/09/22 02:41:58;;;;;;;4.83;4.20;;;;;;;8.51;100.00;94651.78;5032293;28;20206;-62
2022/09/22 02:44:42;;;;;;;4.57;4.17;;;;;;;8.44;100.00;94659.06;5031478;28;20726;-64
2022/09/22 02:47:44;;;;;;;5.33;4.70;;;;;;;8.28;100.00;94646.75;5032026;28;20637;-62
2022/09/22 02:50:13;;;;;;;5.93;4.90;;;;;;;8.26;100.00;94650.34;5031290;28;20220;-64
2022/09/22 02:52:39;;;;;;;6.03;5.13;;;;;;;8.21;100.00;94653.19;5030200;28;20221;-63
2022/09/22 02:55:07;;;;;;;5.73;5.10;;;;;;;8.21;100.00;94650.66;5030193;28;20244;-63
2022/09/22 02:57:33;;;;;;;6.03;5.43;;;;;;;8.19;100.00;94655.03;5031441;28;20577;-63
2022/09/22 02:59:59;;;;;;;6.83;5.40;;;;;;;8.26;100.00;94658.72;5031550;28;20209;-62
2022/09/22 03:02:24;;;;;;;6.13;5.53;;;;;;;8.30;100.00;94651.72;5031277;28;20726;-62
2022/09/22 03:04:50;;;;;;;7.43;6.00;;;;;;;8.42;100.00;94660.91;5031256;28;20741;-60
2022/09/22 03:07:16;;;;;;;7.80;5.23;;;;;;;8.20;100.00;94649.03;5031372;28;20202;-62
2022/09/22 03:09:42;;;;;;;5.63;5.03;;;;;;;8.30;100.00;94657.56;5029744;28;20629;-61
2022/09/22 03:12:07;;;;;;;5.70;5.13;;;;;;;8.26;100.00;94663.00;5031518;28;20213;-63
2022/09/22 03:14:33;;;;;;;6.47;5.50;;;;;;;8.23;100.00;94656.41;5031161;28;20213;-61
2022/09/22 03:16:59;;;;;;;6.83;5.47;;;;;;;8.18;100.00;94655.16;5031197;28;20201;-62
2022/09/22 03:19:25;;;;;;;6.97;5.93;;;;;;;8.20;100.00;94656.63;5031143;28;20220;-61
2022/09/22 03:21:50;;;;;;;6.83;6.03;;;;;;;8.20;100.00;94651.56;5031169;28;20774;-61
2022/09/22 03:24:16;;;;;;;9.83;5.80;;;;;;;8.22;100.00;94659.06;5029914;28;20304;-61
2022/09/22 03:26:41;;;;;;;6.90;5.93;;;;;;;8.27;100.00;94657.81;5031515;28;20186;-63
2022/09/22 03:29:07;;;;;;;8.20;6.70;;;;;;;8.23;100.00;94648.81;5031109;28;20605;-65
2022/09/22 03:31:32;;;;;;;6.83;6.07;;;;;;;8.27;100.00;94652.75;5031083;28;20225;-64
2022/09/22 03:33:58;;;;;;;5.90;5.40;;;;;;;8.20;100.00;94646.50;5030868;28;20209;-61
2022/09/22 03:36:23;;;;;;;6.33;5.73;;;;;;;8.26;100.00;94650.34;5031248;28;20295;-60
2022/09/22 03:38:50;;;;;;;6.00;5.40;;;;;;;8.18;100.00;94648.34;5029605;28;20220;-63
2022/09/22 03:41:16;;;;;;;10.70;5.90;;;;;;;8.15;100.00;94645.22;5028502;28;20217;-63
2022/09/22 03:43:42;;;;;;;5.83;5.23;;;;;;;8.16;100.00;94644.31;5029410;28;20758;-63
2022/09/22 03:46:07;;;;;;;8.07;5.90;;;;;;;8.13;100.00;94649.59;5029488;28;20351;-64
2022/09/22 03:48:32;;;;;;;6.73;5.97;;;;;;;8.08;100.00;94652.47;5030818;28;20193;-60
2022/09/22 03:50:58;;;;;;;6.53;5.80;;;;;;;8.09;100.00;94661.69;5030724;28;20198;-63
2022/09/22 03:53:24;;;;;;;6.27;5.67;;;;;;;8.10;100.00;94650.63;5030754;28;20670;-62
2022/09/22 03:55:50;;;;;;;7.47;5.60;;;;;;;8.09;100.00;94656.63;5030826;28;20286;-63
2022/09/22 03:58:18;;;;;;;7.27;6.00;;;;;;;8.09;100.00;94660.88;5029566;28;20221;-64
2022/09/22 04:00:44;;;;;;;6.27;5.67;;;;;;;8.17;100.00;94661.13;5029219;28;20218;-62
2022/09/22 04:03:11;;;;;;;6.97;5.50;;;;;;;8.23;100.00;94661.47;5029129;28;20221;-62
2022/09/22 04:05:36;;;;;;;8.13;5.47;;;;;;;8.12;100.00;94663.97;5039830;22;20239;-61
2022/09/22 04:08:02;;;;;;;6.47;5.87;;;;;;;8.20;100.00;94666.75;5050378;28;20189;-60
2022/09/22 04:10:27;;;;;;;6.90;6.20;;;;;;;8.18;100.00;94673.66;5050205;28;20213;-63
2022/09/22 04:12:52;;;;;;;7.03;6.33;;;;;;;8.21;100.00;94667.56;5050480;28;20299;-62
2022/09/22 04:15:18;;;;;;;7.10;5.90;;;;;;;8.21;100.00;94672.63;5050739;28;20214;-64
2022/09/22 04:17:45;;;;;;;6.50;5.90;;;;;;;8.27;100.00;94673.00;5050241;28;20188;-64
2022/09/22 04:20:10;;;;;;;6.33;5.37;;;;;;;8.38;100.00;94670.44;5050649;28;20213;-66
2022/09/22 04:22:37;;;;;;;6.07;5.47;;;;;;;8.34;100.00;94671.59;5050214;28;20586;-64
2022/09/22 04:25:03;;;;;;;6.67;5.97;;;;;;;8.39;100.00;94683.94;5032426;28;20225;-62
2022/09/22 04:27:28;;;;;;;7.17;5.57;;;;;;;8.40;100.00;94675.41;5050156;28;20190;-62
2022/09/22 04:29:54;;;;;;;8.03;6.40;;;;;;;8.47;100.00;94684.16;5050026;28;20231;-61
2022/09/22 04:32:19;;;;;;;6.73;5.60;;;;;;;8.37;100.00;94678.16;5050058;28;20247;-63
2022/09/22 04:34:44;;;;;;;6.67;5.93;;;;;;;8.39;100.00;94674.59;5050307;28;20267;-62
2022/09/22 04:37:10;;;;;;;6.53;5.83;;;;;;;8.35;100.00;94667.34;5032190;28;20280;-64
2022/09/22 04:39:36;;;;;;;6.33;5.67;;;;;;;8.36;100.00;94677.34;5032449;28;20214;-62
2022/09/22 04:42:03;;;;;;;6.00;5.20;;;;;;;8.39;100.00;94681.41;5049449;28;20200;-62
2022/09/22 04:44:28;;;;;;;7.60;6.13;;;;;;;8.41;100.00;94677.81;5047882;28;20209;-62
2022/09/22 04:46:55;;;;;;;6.33;5.73;;;;;;;8.53;100.00;94682.88;5048903;28;20220;-63
2022/09/22 04:49:21;;;;;;;6.97;5.87;;;;;;;8.53;100.00;94686.22;5049928;28;20559;-60
2022/09/22 04:51:47;;;;;;;6.93;6.17;;;;;;;8.53;100.00;94676.09;5049624;28;20212;-63
2022/09/22 04:54:15;;;;;;;6.40;5.73;;;;;;;8.38;100.00;94662.84;5052793;28;20209;-61
2022/09/22 04:56:41;;;;;;;6.27;5.67;;;;;;;8.50;100.00;94678.06;5053135;28;20186;-63
2022/09/22 04:59:07;;;;;;;6.93;6.13;;;;;;;8.61;100.00;94691.50;5053373;28;20285;-60
2022/09/22 05:01:32;;;;;;;7.40;6.63;;;;;;;8.58;100.00;94690.94;5053168;28;20216;-62
2022/09/22 05:03:58;;;;;;;7.10;6.37;;;;;;;8.48;100.00;94682.44;5034906;28;20289;-63
2022/09/22 05:06:23;;;;;;;6.50;5.80;;;;;;;8.50;100.00;94678.88;5052077;28;20181;-64
2022/09/22 05:08:49;;;;;;;7.60;6.27;;;;;;;8.61;100.00;94699.09;5051508;28;20221;-60
2022/09/22 05:11:14;;;;;;;8.47;6.53;;;;;;;8.61;100.00;94683.09;5050653;28;20182;-63
2022/09/22 05:13:40;;;;;;;9.17;7.50;;;;;;;8.61;100.00;94693.22;5034314;28;20216;-64
2022/09/22 05:16:07;;;;;;;8.27;5.83;;;;;;;8.56;100.00;94693.59;5052822;28;20273;-61
2022/09/22 05:18:33;;;;;;;7.60;6.37;;;;;;;8.58;100.00;94686.69;5052831;28;20247;-62
2022/09/22 05:21:00;;;;;;;7.50;6.50;;;;;;;8.62;100.00;94689.78;5052965;28;20186;-63
2022/09/22 05:23:26;;;;;;;8.10;6.47;;;;;;;8.65;100.00;94692.06;5034826;28;20201;-60
2022/09/22 05:25:52;;;;;;;8.60;6.57;;;;;;;8.65;100.00;94697.13;5052606;28;20273;-62
2022/09/22 05:28:19;;;;;;;7.60;6.10;;;;;;;8.63;100.00;94691.38;5052589;28;20189;-61
2022/09/22 05:30:48;;;;;;;6.83;6.10;;;;;;;8.71;100.00;94694.94;5050497;28;20698;-62
2022/09/22 05:33:13;;;;;;;7.60;6.70;;;;;;;8.83;100.00;94705.88;5050592;28;20613;-63
2022/09/22 05:35:39;;;;;;;7.57;6.60;;;;;;;8.86;100.00;94701.38;5052414;28;20304;-63
2022/09/22 05:38:04;;;;;;;9.13;6.03;;;;;;;8.97;100.00;94698.81;5052497;28;20190;-61
2022/09/22 05:40:30;;;;;;;7.70;5.93;;;;;;;9.16;100.00;94713.41;5052417;28;20599;-62
2022/09/22 05:42:55;;;;;;;12.00;7.37;;;;;;;9.07;100.00;94714.91;5052372;28;20210;-62
2022/09/22 05:45:21;;;;;;;8.57;6.73;;;;;;;8.90;100.00;94699.41;5052743;28;20703;-61
2022/09/22 05:47:46;;;;;;;9.07;7.07;;;;;;;9.01;100.00;94714.56;5052430;28;20325;-63
2022/09/22 05:50:15;;;;;;;7.70;5.70;;;;;;;8.83;100.00;94696.53;5052631;28;20250;-62
2022/09/22 05:52:40;;;;;;;7.37;5.90;;;;;;;8.86;100.00;94705.63;5052168;28;20248;-62
2022/09/22 05:55:07;;;;;;;8.50;7.03;;;;;;;8.85;100.00;94698.94;5034185;28;20615;-62
2022/09/22 05:57:32;;;;;;;6.50;5.77;;;;;;;9.00;100.00;94697.78;5052221;28;20219;-62
2022/09/22 05:59:58;;;;;;;7.13;6.27;;;;;;;9.04;100.00;94696.59;5051986;28;20209;-62
2022/09/22 06:02:24;;;;;;;7.23;6.10;;;;;;;9.18;100.00;94709.00;5052033;28;20711;-62
2022/09/22 06:04:50;;;;;;;6.33;5.73;;;;;;;9.22;100.00;94710.38;5051231;28;20291;-62
2022/09/22 06:07:19;;;;;;;7.70;6.60;;;;;;;9.27;100.00;94716.69;5052122;28;20205;-62
2022/09/22 06:09:46;;;;;;;6.03;5.30;;;;;;;9.23;100.00;94714.53;5034253;28;20218;-63
2022/09/22 06:12:11;;;;;;;7.93;6.03;;;;;;;9.20;100.00;94704.63;5052265;28;20229;-63
2022/09/22 06:14:37;;;;;;;6.77;5.77;;;;;;;9.16;100.00;94723.53;5034019;28;20221;-64
2022/09/22 06:17:03;;;;;;;7.83;6.33;;;;;;;9.13;100.00;94716.19;5051803;28;20196;-62
2022/09/22 06:19:28;;;;;;;10.50;6.57;;;;;;;9.10;100.00;94704.56;5051793;28;20221;-60
2022/09/22 06:21:54;;;;;;;6.33;5.73;;;;;;;9.35;100.00;94677.25;5051755;28;20200;-59
2022/09/22 06:24:21;;;;;;;7.30;5.97;;;;;;;9.39;100.00;94720.03;5051764;28;20242;-60
2022/09/22 06:26:46;;;;;;;7.07;5.87;;;;;;;9.38;100.00;94731.09;5051682;28;20188;-60
2022/09/22 06:29:12;;;;;;;7.40;5.77;;;;;;;9.22;100.00;94735.75;5052253;28;20210;-61
2022/09/22 06:31:38;;;;;;;7.97;5.80;;;;;;;9.09;100.00;94717.34;5051697;28;20206;-61
2022/09/22 06:34:04;;;;;;;8.43;5.83;;;;;;;9.17;100.00;94720.09;5051682;28;20616;-61
2022/09/22 06:36:30;;;;;;;6.13;5.53;;;;;;;9.19;100.00;94725.84;5051721;28;20579;-59
2022/09/22 06:39:03;;;;;;;7.83;5.10;;;;;;;9.24;100.00;94721.22;5051521;28;20212;-60
2022/09/22 06:41:32;;;;;;;5.70;5.00;;;;;;;9.35;100.00;94740.66;5051714;28;20639;-63
2022/09/22 06:43:58;;;;;;;7.40;6.20;;;;;;;9.45;100.00;94742.38;5051221;28;20214;-64
2022/09/22 06:46:29;;;;;;;6.27;5.37;;;;;;;9.57;100.00;94755.81;5051397;28;20195;-62
2022/09/22 06:48:56;;;;;;;11.47;5.60;;;;;;;9.68;100.00;94765.91;5051317;28;20691;-61
2022/09/22 06:51:31;;;;;;;6.33;5.40;;;;;;;9.53;100.00;94717.19;5051144;28;20221;-64
2022/09/22 06:53:57;;;;;;;6.10;5.50;;;;;;;9.55;100.00;94737.38;5059054;22;20261;-63
2022/09/22 06:56:24;;;;;;;6.73;4.97;;;;;;;9.56;100.00;94737.25;5051501;28;20256;-62
2022/09/22 06:58:50;;;;;;;7.77;4.87;;;;;;;10.04;100.00;94765.50;5051125;28;20201;-62
2022/09/22 07:01:17;;;;;;;6.33;4.93;;;;;;;10.16;100.00;94763.75;5051227;28;20193;-61
2022/09/22 07:03:43;;;;;;;6.63;4.80;;;;;;;10.24;100.00;94769.81;5051247;28;20715;-62
2022/09/22 07:06:09;;;;;;;4.70;4.30;;;;;;;10.35;100.00;94787.53;5051175;28;20216;-61
2022/09/22 07:08:37;;;;;;;5.70;4.30;;;;;;;10.39;100.00;94785.53;5050884;28;20675;-60
2022/09/22 07:11:07;;;;;;;4.57;4.00;;;;;;;10.24;100.00;94779.97;5050834;28;20185;-61
2022/09/22 07:13:41;;;;;;;4.97;4.47;;;;;;;10.23;100.00;94797.88;5051259;28;20198;-64
2022/09/22 07:16:09;;;;;;;6.50;4.43;;;;;;;10.18;100.00;94782.22;5032951;28;20197;-62
2022/09/22 07:18:39;;;;;;;4.40;3.90;;;;;;;10.18;100.00;94790.63;5051036;28;20190;-65
2022/09/22 07:21:07;;;;;;;5.37;4.80;;;;;;;10.28;100.00;94776.25;5031689;28;20631;-63
2022/09/22 07:23:35;;;;;;;5.20;4.67;;;;;;;10.28;100.00;94778.00;5050870;28;20190;-62
2022/09/22 07:26:11;;;;;;;5.87;4.53;;;;;;;10.34;100.00;94767.34;5033227;28;20243;-60
2022/09/22 07:28:38;;;;;;;7.70;5.23;;;;;;;10.25;100.00;94737.59;5058461;22;20657;-61
2022/09/22 07:31:08;;;;;;;5.97;5.00;;;;;;;10.43;100.00;94734.34;5050788;28;20212;-63
2022/09/22 07:33:35;;;;;;;5.43;4.90;;;;;;;10.48;100.00;94764.47;5051187;28;20270;-63
2022/09/22 07:36:13;;;;;;;8.20;5.73;;;;;;;10.69;100.00;94750.78;5050892;28;20185;-63
2022/09/22 07:38:40;;;;;;;9.20;5.77;;;;;;;10.93;100.00;94771.59;5050723;28;20209;-61
2022/09/22 07:41:08;;;;;;;5.97;5.27;;;;;;;11.02;100.00;94787.84;5050591;28;20181;-61
2022/09/22 07:43:34;;;;;;;8.17;5.20;;;;;;;11.15;100.00;94813.06;5050690;28;20193;-63
2022/09/22 07:46:01;;;;;;;5.43;4.80;;;;;;;11.05;100.00;94827.47;5050536;28;20545;-63
2022/09/22 07:48:40;;;;;;;7.30;4.73;;;;;;;11.34;100.00;94798.63;5050547;28;20198;-62
2022/09/22 07:51:09;;;;;;;7.20;5.03;;;;;;;11.60;100.00;94799.75;5050710;28;20182;-61
2022/09/22 07:53:36;;;;;;;6.13;4.50;;;;;;;11.32;100.00;94863.31;5050545;28;20210;-61
2022/09/22 07:56:07;;;;;;;4.70;4.30;;;;;;;11.44;100.00;94852.91;5032514;28;20570;-60
2022/09/22 07:58:32;;;;;;;4.57;3.90;;;;;;;11.32;100.00;94876.03;5050633;28;20616;-62
2022/09/22 08:01:04;;;;;;;4.83;4.33;;;;;;;11.21;100.00;94836.22;5050449;28;20205;-62
2022/09/22 08:03:30;;;;;;;7.27;4.37;;;;;;;11.47;100.00;94852.63;5050518;28;20269;-61
2022/09/22 08:06:06;;;;;;;4.63;4.13;;;;;;;11.24;100.00;94883.50;5050459;28;20672;-61
2022/09/22 08:08:33;;;;;;;4.33;4.00;;;;;;;11.37;100.00;94864.53;5032987;28;20653;-61
2022/09/22 08:11:04;;;;;;;3.40;3.10;;;;;;;11.41;100.00;94921.88;5032451;28;20223;-63
2022/09/22 08:13:30;;;;;;;4.43;3.20;;;;;;;11.38;100.00;94952.69;5032583;28;20219;-63
2022/09/22 08:15:55;;;;;;;5.27;3.90;;;;;;;11.54;100.00;94945.41;5050377;28;20193;-61
2022/09/22 08:18:20;;;;;;;3.20;2.90;;;;;;;11.69;100.00;94941.59;5032285;28;20220;-60
2022/09/22 08:20:46;;;;;;;6.63;4.00;;;;;;;11.70;100.00;94877.00;5050277;28;20277;-63
2022/09/22 08:23:11;;;;;;;4.83;4.10;;;;;;;11.99;100.00;94906.78;5050331;28;20655;-61
2022/09/22 08:25:38;;;;;;;3.63;3.30;;;;;;;11.98;100.00;94930.69;5032337;28;20279;-60
2022/09/22 08:28:03;;;;;;;5.47;3.87;;;;;;;12.38;100.00;94931.38;5033772;28;20268;-62
2022/09/22 08:30:29;;;;;;;3.47;3.03;;;;;;;12.59;97.08;95014.47;5053382;28;20201;-62
2022/09/22 08:32:54;;;;;;;4.50;3.50;;;;;;;12.20;97.61;94974.56;5053653;28;20213;-63
2022/09/22 08:35:20;;;;;;;3.33;2.80;;;;;;;12.06;98.83;94944.34;5053574;28;20211;-60
2022/09/22 08:37:49;;;;;;;2.80;2.60;;;;;;;12.21;98.16;94940.50;5053593;28;20262;-60
2022/09/22 08:40:22;;;;;;;3.10;2.70;;;;;;;12.86;95.90;95000.25;5053364;28;20300;-61
2022/09/22 08:42:49;;;;;;;3.30;2.63;;;;;;;12.75;94.83;94995.25;5053428;28;20192;-61
2022/09/22 08:45:27;;;;;;;2.67;2.47;;;;;;;13.31;92.30;95040.38;5053197;28;20228;-62
2022/09/22 08:53:50;;;;;;;4.10;2.97;;;;;;;13.66;92.14;94998.09;5053799;28;20299;-61
2022/09/22 08:56:31;;;;;;;2.93;2.70;;;;;;;13.54;92.41;94981.31;5053311;28;20659;-62
2022/09/22 08:59:11;;;;;;;3.00;2.80;;;;;;;13.62;90.21;95030.78;5053022;28;20213;-63
2022/09/22 09:02:01;;;;;;;2.10;1.90;;;;;;;13.58;85.76;95085.66;5053096;28;20694;-60
2022/09/22 09:04:50;;;;;;;3.73;2.00;;;;;;;13.71;79.05;95067.47;5053116;28;20209;-62
2022/09/22 09:07:25;;;;;;;2.10;1.97;;;;;;;14.24;76.96;95081.28;5053014;28;20270;-60
2022/09/22 09:09:53;;;;;;;2.57;1.90;;;;;;;14.62;74.37;95122.06;5053314;28;20213;-63
2022/09/22 09:12:18;;;;;;;2.63;1.90;;;;;;;14.32;73.37;95106.19;5052768;28;20627;-60
2022/09/22 09:14:52;;;;;;;2.23;1.87;;;;;;;14.88;74.41;95070.97;5053191;28;20651;-62
2022/09/22 09:17:32;;;;;;;2.27;1.97;;;;;;;15.54;73.55;95074.78;5053018;28;20619;-61
2022/09/22 09:20:14;;;;;;;2.08;1.98;;;;;;;16.12;72.24;95087.78;5053228;28;20239;-61
2022/09/22 09:22:42;;;;;;;3.13;2.38;;;;;;;15.34;65.68;95136.53;5052994;28;20193;-63
2022/09/22 09:25:18;;;;;;;1.80;1.70;;;;;;;14.99;65.57;95117.66;5052739;28;20209;-61
2022/09/22 09:27:49;;;;;;;2.20;1.90;;;;;;;15.18;65.80;95111.59;5052674;28;20181;-63
2022/09/22 09:30:17;;;;;;;1.70;1.58;;;;;;;14.69;65.98;95089.81;5053112;28;20229;-60
2022/09/22 09:32:52;;;;;;;3.33;1.90;;;;;;;14.80;67.56;95050.44;5052512;28;20212;-61
2022/09/22 09:35:49;;;;;;;2.42;1.55;;;;;;;15.37;64.86;95102.97;5052443;28;20208;-61
2022/09/22 09:38:17;;;;;;;3.03;1.63;;;;;;;16.36;63.92;95125.59;5051175;28;20201;-61
2022/09/22 09:40:53;;;;;;;2.72;1.83;;;;;;;16.59;58.45;95240.44;5032980;28;20189;-62
2022/09/22 09:43:21;;;;;;;2.22;1.75;;;;;;;16.39;58.07;95218.47;5052935;28;20270;-63
2022/09/22 09:46:05;;;;;;;1.48;1.38;;;;;;;15.95;58.76;95180.97;5052410;28;20313;-61
2022/09/22 09:48:47;;;;;;;1.65;1.55;;;;;;;15.63;58.76;95165.34;5052524;28;20177;-61
2022/09/22 09:51:13;;;;;;;1.90;1.38;;;;;;;16.16;59.61;95140.38;5052335;28;20655;-61
2022/09/22 09:53:46;;;;;;;2.15;1.48;;;;;;;16.88;58.60;95164.81;5034618;28;20705;-61
2022/09/22 09:56:27;;;;;;;1.42;1.33;;;;;;;17.32;56.28;95213.31;5052293;28;20673;-60
2022/09/22 10:01:41;;;;;;;1.33;1.20;;;;;;;16.99;53.59;95242.41;5052475;28;20565;-61
2022/09/22 10:04:27;;;;;;;1.75;1.65;;;;;;;16.98;54.48;95211.75;5052364;28;20208;-60
2022/09/22 10:06:53;;;;;;;1.42;1.33;;;;;;;16.49;54.88;95190.16;5052004;28;20229;-62
2022/09/22 10:09:27;;;;;;;1.80;1.67;;;;;;;16.57;54.89;95178.19;5052125;28;20292;-62
2022/09/22 10:11:57;;;;;;;1.48;1.38;;;;;;;17.08;55.06;95166.16;5051947;28;20201;-61
2022/09/22 10:14:26;;;;;;;2.53;1.65;;;;;;;17.42;55.06;95166.88;5051849;28;20209;-62
2022/09/22 10:16:52;;;;;;;1.42;1.33;;;;;;;18.27;53.43;95207.59;5051883;28;20251;-62
2022/09/22 10:19:35;;;;;;;2.15;1.40;;;;;;;18.59;52.11;95243.63;5052258;28;20679;-63
2022/09/22 10:22:25;;;;;;;1.50;1.40;;;;;;;18.64;49.70;95307.53;5051969;28;20700;-60
2022/09/22 10:25:00;;;;;;;1.50;1.40;;;;;;;18.14;50.27;95269.06;5052319;28;20217;-63
2022/09/22 10:27:28;;;;;;;1.50;1.40;;;;;;;17.89;50.03;95267.44;5033976;28;20193;-62
2022/09/22 10:30:36;;;;;;;1.20;1.20;;;;;;;18.37;48.71;95301.72;5052041;28;20210;-62
2022/09/22 10:33:07;;;;;;;1.80;1.23;;;;;;;18.40;49.90;95249.13;5051722;28;20210;-61
2022/09/22 10:35:35;;;;;;;1.75;1.20;;;;;;;17.87;48.62;95275.31;5051502;28;20209;-62
2022/09/22 10:38:40;;;;;;;2.15;1.95;;;;;;;16.59;52.31;95130.06;5051687;28;20194;-62
2022/09/22 10:41:14;;;;;;;2.38;1.50;;;;;;;16.05;54.61;95065.47;4971013;28;20365;-61
2022/09/22 10:44:18;;;;;;;3.05;1.42;;;;;;;15.74;54.53;95068.50;4954509;28;20212;-62
2022/09/22 10:47:05;;;;;;;1.52;1.33;;;;;;;15.55;55.40;95043.09;5034450;28;20205;-61
2022/09/22 10:49:33;;;;;;;0.98;0.98;;;;;;;15.45;54.97;95056.94;5051425;28;20637;-62
2022/09/22 10:52:22;;;;;;;1.05;0.95;;;;;;;15.22;54.20;95060.88;5050882;28;20212;-61
2022/09/22 10:55:02;;;;;;;2.05;0.93;;;;;;;15.63;53.91;95073.88;5051577;28;20236;-62
2022/09/22 10:57:44;;;;;;;0.90;0.80;;;;;;;16.23;51.32;95156.78;5033536;28;20189;-62
2022/09/22 11:00:18;;;;;;;0.85;0.77;;;;;;;17.02;49.01;95244.69;5051102;28;20217;-63
2022/09/22 11:02:52;;;;;;;1.27;1.17;;;;;;;17.07;46.54;95306.66;5033238;28;20654;-62
2022/09/22 11:14:18;;;;;;;1.35;1.25;;;;;;;18.08;50.47;95144.41;5051932;28;20220;-61
2022/09/22 11:16:52;;;;;;;1.60;1.50;;;;;;;17.72;51.07;95125.16;5033488;28;20565;-62
2022/09/22 11:19:39;;;;;;;1.60;1.50;;;;;;;17.65;52.49;95080.47;5051206;28;20641;-60
2022/09/22 11:22:35;;;;;;;1.98;1.25;;;;;;;17.40;52.38;95077.06;5051045;28;20282;-63
2022/09/22 11:25:32;;;;;;;1.27;1.20;;;;;;;17.92;50.47;95141.03;5051392;28;20213;-62
2022/09/22 11:28:35;;;;;;;1.25;1.17;;;;;;;17.52;46.24;95270.41;5016682;28;20270;-61
2022/09/22 11:31:01;;;;;;;1.17;0.88;;;;;;;18.17;45.99;95266.97;5003067;28;20297;-62
2022/09/22 11:33:50;;;;;;;1.75;0.90;;;;;;;18.38;46.30;95256.19;5050924;28;20270;-60
2022/09/22 11:36:43;;;;;;;2.72;1.27;;;;;;;18.81;47.31;95208.63;5050918;28;20572;-60
2022/09/22 11:39:50;;;;;;;1.80;1.50;;;;;;;19.70;47.49;95157.41;5033232;28;20221;-62
2022/09/22 11:42:42;;;;;;;2.88;1.60;;;;;;;19.25;46.27;95166.69;5050904;28;20177;-62
2022/09/22 11:45:26;;;;;;;2.20;1.35;;;;;;;19.89;45.49;95191.31;5032735;28;20717;-61
2022/09/22 11:47:51;;;;;;;1.98;1.05;;;;;;;19.02;43.99;95216.63;5050952;28;20176;-60
2022/09/22 11:50:26;;;;;;;1.60;1.10;;;;;;;18.21;43.20;95234.00;5032831;28;20299;-62
2022/09/22 11:53:22;;;;;;;0.80;0.80;;;;;;;18.36;43.91;95191.97;5050801;28;20208;-60
2022/09/22 11:56:07;;;;;;;0.88;0.88;;;;;;;19.03;41.52;95272.31;5032623;28;20197;-61
2022/09/22 11:58:39;;;;;;;1.95;1.30;;;;;;;18.58;42.15;95225.78;5050621;28;20221;-60
2022/09/22 12:01:12;;;;;;;1.00;1.00;;;;;;;18.16;46.16;95080.03;5050819;28;20192;-61
2022/09/22 12:03:42;;;;;;;3.03;1.08;;;;;;;17.96;50.43;94965.59;5052865;28;20202;-60
2022/09/22 12:06:13;;;;;;;1.58;1.23;;;;;;;18.58;51.24;94955.34;5054384;28;20208;-60
2022/09/22 12:08:52;;;;;;;1.70;1.23;;;;;;;19.24;50.46;94984.66;5054098;28;20261;-62